Time,TemperatureF,DewpointF,PressureIn,WindDirection,WindDirectionDegrees,WindSpeedMPH,WindSpeedGustMPH,Humidity,HourlyPrecipIn,Conditions,Clouds,dailyrainin,SoftwareType,DateUTC
2013-09-08 00:00:00,77.4,72.9,29.97,NW,310,0.0,0.0,86,0.00,,CLR,0.00,VWS V14.01,2013-09-08 04:00:00,
2013-09-08 00:01:00,77.4,72.9,29.97,NW,310,0.0,0.0,86,0.00,,CLR,0.00,VWS V14.01,2013-09-08 04:01:00,
2013-09-08 00:02:00,77.4,72.9,29.98,NW,310,0.0,0.0,86,0.00,,CLR,0.00,VWS V14.01,2013-09-08 04:02:00,
2013-09-08 00:07:00,77.4,73.2,29.97,NW,310,0.0,0.0,87,0.00,,CLR,0.00,VWS V14.01,2013-09-08 04:07:00,
2013-09-08 00:12:00,77.3,72.8,29.97,NW,310,0.0,0.0,86,0.00,,CLR,0.00,VWS V14.01,2013-09-08 04:12:00,
2013-09-08 00:17:00,77.3,72.8,29.97,NW,310,0.0,0.0,86,0.00,,CLR,0.00,VWS V14.01,2013-09-08 04:17:00,
2013-09-08 00:22:00,77.2,73.0,29.97,NW,310,0.0,0.0,87,0.00,,CLR,0.00,VWS V14.01,2013-09-08 04:22:00,
2013-09-08 00:27:00,77.3,73.1,29.97,NW,310,0.0,0.0,87,0.00,,CLR,0.00,VWS V14.01,2013-09-08 04:27:00,
2013-09-08 00:32:00,77.2,73.0,29.97,NW,310,0.0,0.0,87,0.00,,CLR,0.00,VWS V14.01,2013-09-08 04:32:00,
2013-09-08 00:37:00,77.2,73.0,29.96,NW,310,0.0,0.0,87,0.00,,CLR,0.00,VWS V14.01,2013-09-08 04:37:00,
2013-09-08 00:42:00,77.1,72.9,29.97,NW,310,0.0,0.0,87,0.00,,CLR,0.00,VWS V14.01,2013-09-08 04:42:00,
2013-09-08 00:47:00,77.1,72.9,29.96,NW,310,0.0,0.0,87,0.00,,CLR,0.00,VWS V14.01,2013-09-08 04:47:00,
2013-09-08 00:52:00,77.0,72.8,29.96,NW,310,0.0,0.0,87,0.00,,CLR,0.00,VWS V14.01,2013-09-08 04:52:00,
2013-09-08 00:57:00,77.0,72.8,29.97,NW,309,0.0,0.0,87,0.00,,CLR,0.00,VWS V14.01,2013-09-08 04:57:00,
2013-09-08 01:02:00,76.9,72.7,29.97,NW,309,0.0,0.0,87,0.00,,CLR,0.00,VWS V14.01,2013-09-08 05:02:00,
2013-09-08 01:07:00,76.9,72.7,29.96,NW,307,0.0,0.0,87,0.00,,CLR,0.00,VWS V14.01,2013-09-08 05:07:00,
2013-09-08 01:11:00,76.9,72.7,29.97,NW,307,0.0,0.0,87,0.00,,CLR,0.00,VWS V14.01,2013-09-08 05:11:00,
2013-09-08 01:16:00,76.8,73.0,29.96,WNW,302,0.0,0.0,88,0.00,,CLR,0.00,VWS V14.01,2013-09-08 05:16:00,
2013-09-08 01:22:00,76.8,73.0,29.97,NW,304,0.0,0.0,88,0.00,,CLR,0.00,VWS V14.01,2013-09-08 05:22:00,
2013-09-08 01:26:00,76.8,73.0,29.96,NW,305,0.0,0.0,88,0.00,,CLR,0.00,VWS V14.01,2013-09-08 05:26:00,
2013-09-08 01:31:00,76.7,72.9,29.96,NW,304,0.0,0.0,88,0.00,,CLR,0.00,VWS V14.01,2013-09-08 05:31:00,
2013-09-08 01:36:00,76.7,72.9,29.96,WNW,302,0.0,0.0,88,0.00,,CLR,0.00,VWS V14.01,2013-09-08 05:36:00,
2013-09-08 01:41:00,76.6,73.1,29.96,WNW,293,0.0,0.0,89,0.00,,CLR,0.00,VWS V14.01,2013-09-08 05:41:00,
2013-09-08 01:46:00,76.5,73.0,29.96,WNW,295,0.0,0.0,89,0.00,,CLR,0.00,VWS V14.01,2013-09-08 05:46:00,
2013-09-08 01:51:00,76.5,72.7,29.95,NW,308,0.0,0.0,88,0.00,,CLR,0.00,VWS V14.01,2013-09-08 05:51:00,
2013-09-08 01:56:00,76.4,72.6,29.95,NW,307,0.0,0.0,88,0.00,,CLR,0.00,VWS V14.01,2013-09-08 05:56:00,
2013-09-08 02:01:00,76.4,72.9,29.95,NW,305,0.0,0.0,89,0.00,,CLR,0.00,VWS V14.01,2013-09-08 06:01:00,
2013-09-08 02:06:00,76.4,72.9,29.95,NW,305,0.0,1.0,89,0.00,,CLR,0.00,VWS V14.01,2013-09-08 06:06:00,
2013-09-08 02:11:00,76.3,72.8,29.95,NW,304,0.0,1.0,89,0.00,,CLR,0.00,VWS V14.01,2013-09-08 06:11:00,
2013-09-08 02:16:00,76.3,72.8,29.95,WNW,303,0.0,1.0,89,0.00,,CLR,0.00,VWS V14.01,2013-09-08 06:16:00,
2013-09-08 02:21:00,76.3,72.8,29.95,WNW,303,0.0,1.0,89,0.00,,CLR,0.00,VWS V14.01,2013-09-08 06:21:00,
2013-09-08 02:26:00,76.3,73.2,29.94,WNW,298,0.0,1.0,90,0.00,,CLR,0.00,VWS V14.01,2013-09-08 06:26:00,
2013-09-08 02:31:00,76.3,72.8,29.94,NW,306,0.0,1.0,89,0.00,,CLR,0.00,VWS V14.01,2013-09-08 06:31:00,
2013-09-08 02:36:00,76.2,72.7,29.94,NW,306,0.0,1.0,89,0.00,,CLR,0.00,VWS V14.01,2013-09-08 06:36:00,
2013-09-08 02:41:00,76.1,72.6,29.94,NW,306,0.0,1.0,89,0.00,,CLR,0.00,VWS V14.01,2013-09-08 06:41:00,
2013-09-08 02:46:00,76.0,72.5,29.94,NW,306,0.0,1.0,89,0.00,,CLR,0.00,VWS V14.01,2013-09-08 06:46:00,
2013-09-08 02:51:00,75.8,72.3,29.94,NW,306,0.0,1.0,89,0.00,,CLR,0.00,VWS V14.01,2013-09-08 06:51:00,
2013-09-08 02:56:00,75.7,72.2,29.93,NW,305,0.0,1.0,89,0.00,,CLR,0.00,VWS V14.01,2013-09-08 06:56:00,
2013-09-08 03:01:00,75.7,72.6,29.93,NW,306,0.0,0.0,90,0.00,,CLR,0.00,VWS V14.01,2013-09-08 07:01:00,
2013-09-08 03:06:00,75.6,72.5,29.93,NW,306,0.0,0.0,90,0.00,,CLR,0.00,VWS V14.01,2013-09-08 07:06:00,
2013-09-08 03:11:00,75.5,72.4,29.94,NW,308,0.0,0.0,90,0.00,,CLR,0.00,VWS V14.01,2013-09-08 07:11:00,
2013-09-08 03:16:00,75.5,72.4,29.93,NW,308,0.0,0.0,90,0.00,,CLR,0.00,VWS V14.01,2013-09-08 07:16:00,
2013-09-08 03:21:00,75.5,72.4,29.93,NW,308,0.0,3.0,90,0.00,,CLR,0.00,VWS V14.01,2013-09-08 07:21:00,
2013-09-08 03:26:00,75.4,72.3,29.93,NW,308,0.0,3.0,90,0.00,,CLR,0.00,VWS V14.01,2013-09-08 07:26:00,
2013-09-08 03:31:00,75.4,72.3,29.93,NW,308,0.0,3.0,90,0.00,,CLR,0.00,VWS V14.01,2013-09-08 07:31:00,
2013-09-08 03:36:00,75.3,72.2,29.94,NW,306,4.0,4.0,90,0.00,,CLR,0.00,VWS V14.01,2013-09-08 07:36:00,
2013-09-08 03:41:00,75.3,72.5,29.93,WNW,302,0.0,5.0,91,0.00,,CLR,0.00,VWS V14.01,2013-09-08 07:41:00,
2013-09-08 03:46:00,75.3,72.5,29.93,WNW,302,0.0,5.0,91,0.00,,CLR,0.00,VWS V14.01,2013-09-08 07:46:00,
2013-09-08 03:51:00,75.4,72.6,29.93,NW,305,0.0,5.0,91,0.00,,CLR,0.00,VWS V14.01,2013-09-08 07:51:00,
2013-09-08 03:56:00,75.3,72.5,29.92,NW,305,0.0,5.0,91,0.00,,CLR,0.00,VWS V14.01,2013-09-08 07:56:00,
2013-09-08 04:01:00,75.3,72.5,29.93,NW,310,0.0,0.0,91,0.00,,CLR,0.00,VWS V14.01,2013-09-08 08:01:00,
2013-09-08 04:06:00,75.4,72.6,29.93,NW,309,0.0,0.0,91,0.00,,CLR,0.00,VWS V14.01,2013-09-08 08:06:00,
2013-09-08 04:11:00,75.3,72.5,29.92,NW,309,0.0,0.0,91,0.00,,CLR,0.00,VWS V14.01,2013-09-08 08:11:00,
2013-09-08 04:16:00,75.3,72.5,29.92,NW,309,0.0,0.0,91,0.00,,CLR,0.00,VWS V14.01,2013-09-08 08:16:00,
2013-09-08 04:21:00,75.3,72.5,29.92,NW,309,0.0,0.0,91,0.00,,CLR,0.00,VWS V14.01,2013-09-08 08:21:00,
2013-09-08 04:26:00,75.3,72.5,29.92,NW,308,0.0,0.0,91,0.00,,CLR,0.00,VWS V14.01,2013-09-08 08:26:00,
2013-09-08 04:31:00,75.3,72.8,29.92,NW,307,0.0,0.0,92,0.00,,CLR,0.00,VWS V14.01,2013-09-08 08:31:00,
2013-09-08 04:36:00,75.3,72.5,29.93,NW,306,0.0,0.0,91,0.00,,CLR,0.00,VWS V14.01,2013-09-08 08:36:00,
2013-09-08 04:41:00,75.3,72.5,29.92,NW,306,0.0,0.0,91,0.00,,CLR,0.00,VWS V14.01,2013-09-08 08:41:00,
2013-09-08 04:46:00,75.3,72.8,29.92,WNW,296,0.0,0.0,92,0.00,,CLR,0.00,VWS V14.01,2013-09-08 08:46:00,
2013-09-08 04:51:00,75.3,72.8,29.93,WNW,303,0.0,0.0,92,0.00,,CLR,0.00,VWS V14.01,2013-09-08 08:51:00,
2013-09-08 04:56:00,75.3,72.8,29.93,WNW,302,0.0,0.0,92,0.00,,CLR,0.00,VWS V14.01,2013-09-08 08:56:00,
2013-09-08 05:01:00,75.3,72.8,29.92,WNW,301,0.0,0.0,92,0.00,,,0.00,VWS V14.01,2013-09-08 09:01:00,
2013-09-08 05:06:00,75.3,73.1,29.92,WNW,293,0.0,0.0,93,0.00,,,0.00,VWS V14.01,2013-09-08 09:06:00,
2013-09-08 05:11:00,75.3,72.8,29.92,WNW,297,0.0,0.0,92,0.00,,,0.00,VWS V14.01,2013-09-08 09:11:00,
2013-09-08 05:16:00,75.3,73.1,29.92,WNW,293,0.0,0.0,93,0.00,,,0.00,VWS V14.01,2013-09-08 09:16:00,
2013-09-08 05:21:00,75.2,72.7,29.92,WNW,298,0.0,0.0,92,0.00,,,0.00,VWS V14.01,2013-09-08 09:21:00,
2013-09-08 05:26:00,75.2,72.7,29.93,WNW,295,0.0,0.0,92,0.00,,,0.00,VWS V14.01,2013-09-08 09:26:00,
2013-09-08 05:31:00,75.2,72.4,29.92,NW,308,0.0,0.0,91,0.00,,,0.00,VWS V14.01,2013-09-08 09:31:00,
2013-09-08 05:36:00,75.2,72.4,29.92,NW,307,0.0,0.0,91,0.00,,,0.00,VWS V14.01,2013-09-08 09:36:00,
2013-09-08 05:41:00,75.0,72.2,29.92,NW,307,0.0,0.0,91,0.00,,,0.00,VWS V14.01,2013-09-08 09:41:00,
2013-09-08 05:46:00,75.0,72.2,29.92,NW,306,0.0,0.0,91,0.00,,,0.00,VWS V14.01,2013-09-08 09:46:00,
2013-09-08 05:51:00,75.0,72.5,29.92,WNW,299,0.0,0.0,92,0.00,,,0.00,VWS V14.01,2013-09-08 09:51:00,
2013-09-08 05:56:00,75.0,72.5,29.92,WNW,300,0.0,0.0,92,0.00,,,0.00,VWS V14.01,2013-09-08 09:56:00,
2013-09-08 06:01:00,75.0,72.8,29.93,WNW,300,0.0,0.0,93,0.00,,,0.00,VWS V14.01,2013-09-08 10:01:00,
2013-09-08 06:06:00,75.0,72.2,29.92,NW,312,0.0,0.0,91,0.00,,,0.00,VWS V14.01,2013-09-08 10:06:00,
2013-09-08 06:11:00,75.0,72.2,29.92,NW,313,0.0,0.0,91,0.00,,,0.00,VWS V14.01,2013-09-08 10:11:00,
2013-09-08 06:16:00,75.0,72.2,29.92,NW,312,0.0,0.0,91,0.00,,,0.00,VWS V14.01,2013-09-08 10:16:00,
2013-09-08 06:21:00,75.0,72.2,29.93,NW,313,0.0,0.0,91,0.00,,,0.00,VWS V14.01,2013-09-08 10:21:00,
2013-09-08 06:26:00,74.9,72.1,29.93,NW,313,0.0,0.0,91,0.00,,,0.00,VWS V14.01,2013-09-08 10:26:00,
2013-09-08 06:31:00,74.9,72.1,29.93,NW,313,0.0,0.0,91,0.00,,,0.00,VWS V14.01,2013-09-08 10:31:00,
2013-09-08 06:36:00,74.9,72.1,29.93,NW,313,0.0,0.0,91,0.00,,,0.00,VWS V14.01,2013-09-08 10:36:00,
2013-09-08 06:41:00,74.9,72.1,29.93,NW,313,0.0,0.0,91,0.00,,,0.00,VWS V14.01,2013-09-08 10:41:00,
2013-09-08 06:46:00,74.9,72.1,29.93,NW,312,0.0,0.0,91,0.00,,,0.00,VWS V14.01,2013-09-08 10:46:00,
2013-09-08 06:51:00,74.9,72.1,29.93,NW,312,0.0,0.0,91,0.00,,,0.00,VWS V14.01,2013-09-08 10:51:00,
2013-09-08 06:56:00,74.9,72.1,29.93,NW,312,0.0,0.0,91,0.00,,,0.00,VWS V14.01,2013-09-08 10:56:00,
2013-09-08 07:01:00,74.8,72.0,29.93,NW,312,0.0,0.0,91,0.00,,CLR,0.00,VWS V14.01,2013-09-08 11:01:00,
2013-09-08 07:06:00,74.7,71.9,29.94,NW,312,0.0,0.0,91,0.00,,CLR,0.00,VWS V14.01,2013-09-08 11:06:00,
2013-09-08 07:11:00,74.7,71.9,29.93,NW,312,0.0,0.0,91,0.00,,CLR,0.00,VWS V14.01,2013-09-08 11:11:00,
2013-09-08 07:16:00,74.7,71.9,29.94,NW,311,0.0,0.0,91,0.00,,CLR,0.00,VWS V14.01,2013-09-08 11:16:00,
2013-09-08 07:21:00,74.7,71.9,29.94,NW,310,0.0,0.0,91,0.00,,CLR,0.00,VWS V14.01,2013-09-08 11:21:00,
2013-09-08 07:26:00,74.7,72.2,29.93,NW,309,0.0,0.0,92,0.00,,CLR,0.00,VWS V14.01,2013-09-08 11:26:00,
2013-09-08 07:31:00,74.8,72.3,29.94,NW,309,0.0,0.0,92,0.00,,CLR,0.00,VWS V14.01,2013-09-08 11:31:00,
2013-09-08 07:36:00,74.9,72.4,29.94,NW,309,0.0,1.0,92,0.00,,CLR,0.00,VWS V14.01,2013-09-08 11:36:00,
2013-09-08 07:41:00,74.9,72.7,29.94,NW,309,0.0,1.0,93,0.00,,CLR,0.00,VWS V14.01,2013-09-08 11:41:00,
2013-09-08 07:46:00,75.0,72.8,29.94,NW,311,0.0,1.0,93,0.00,,CLR,0.00,VWS V14.01,2013-09-08 11:46:00,
2013-09-08 07:51:00,75.1,72.9,29.94,NW,311,0.0,1.0,93,0.00,,CLR,0.00,VWS V14.01,2013-09-08 11:51:00,
2013-09-08 07:56:00,75.2,73.0,29.94,NW,311,3.0,3.0,93,0.00,,CLR,0.00,VWS V14.01,2013-09-08 11:56:00,
2013-09-08 08:01:00,75.3,73.1,29.94,NW,312,0.0,0.0,93,0.00,,CLR,0.00,VWS V14.01,2013-09-08 12:01:00,
2013-09-08 08:06:00,75.4,73.6,29.94,NW,313,0.0,1.0,94,0.00,,CLR,0.00,VWS V14.01,2013-09-08 12:06:00,
2013-09-08 08:11:00,75.5,73.3,29.94,NW,313,0.0,1.0,93,0.00,,CLR,0.00,VWS V14.01,2013-09-08 12:11:00,
2013-09-08 08:16:00,75.6,73.8,29.95,NW,313,0.0,1.0,94,0.00,,CLR,0.00,VWS V14.01,2013-09-08 12:16:00,
2013-09-08 08:21:00,75.8,73.9,29.95,NW,313,0.0,1.0,94,0.00,,CLR,0.00,VWS V14.01,2013-09-08 12:21:00,
2013-09-08 08:26:00,75.9,74.1,29.95,NW,313,3.0,4.0,94,0.00,,CLR,0.00,VWS V14.01,2013-09-08 12:26:00,
2013-09-08 08:31:00,76.1,74.2,29.95,NW,318,0.0,4.0,94,0.00,,CLR,0.00,VWS V14.01,2013-09-08 12:31:00,
2013-09-08 08:36:00,76.3,74.4,29.95,NW,311,0.0,4.0,94,0.00,,CLR,0.00,VWS V14.01,2013-09-08 12:36:00,
2013-09-08 08:41:00,76.5,74.7,29.95,NW,317,0.0,4.0,94,0.00,,CLR,0.00,VWS V14.01,2013-09-08 12:41:00,
2013-09-08 08:46:00,76.6,74.8,29.95,NW,319,0.0,4.0,94,0.00,,CLR,0.00,VWS V14.01,2013-09-08 12:46:00,
2013-09-08 08:51:00,76.8,74.9,29.96,NW,318,0.0,4.0,94,0.00,,CLR,0.00,VWS V14.01,2013-09-08 12:51:00,
2013-09-08 08:56:00,77.0,75.1,29.96,NW,317,0.0,4.0,94,0.00,,CLR,0.00,VWS V14.01,2013-09-08 12:56:00,
2013-09-08 09:01:00,77.2,75.3,29.95,NW,316,0.0,0.0,94,0.00,,CLR,0.00,VWS V14.01,2013-09-08 13:01:00,
2013-09-08 09:06:00,77.4,75.9,29.95,NW,304,0.0,0.0,95,0.00,,CLR,0.00,VWS V14.01,2013-09-08 13:06:00,
2013-09-08 09:11:00,77.6,75.7,29.96,NW,307,0.0,0.0,94,0.00,,CLR,0.00,VWS V14.01,2013-09-08 13:11:00,
2013-09-08 09:16:00,77.8,75.6,29.96,NW,317,0.0,0.0,93,0.00,,CLR,0.00,VWS V14.01,2013-09-08 13:16:00,
2013-09-08 09:21:00,78.0,75.8,29.96,NW,320,0.0,0.0,93,0.00,,CLR,0.00,VWS V14.01,2013-09-08 13:21:00,
2013-09-08 09:26:00,78.3,76.1,29.96,WNW,295,0.0,0.0,93,0.00,,CLR,0.00,VWS V14.01,2013-09-08 13:26:00,
2013-09-08 09:31:00,78.5,76.6,29.96,NW,310,0.0,0.0,94,0.00,,CLR,0.00,VWS V14.01,2013-09-08 13:31:00,
2013-09-08 09:36:00,78.8,76.9,29.97,WNW,291,0.0,0.0,94,0.00,,CLR,0.00,VWS V14.01,2013-09-08 13:36:00,
2013-09-08 09:41:00,79.2,77.0,29.97,WNW,287,0.0,0.0,93,0.00,,CLR,0.00,VWS V14.01,2013-09-08 13:41:00,
2013-09-08 09:46:00,79.4,76.9,29.97,WNW,301,0.0,1.0,92,0.01,,CLR,0.01,VWS V14.01,2013-09-08 13:46:00,
2013-09-08 09:51:00,79.7,76.8,29.97,SW,221,0.0,4.0,91,0.01,,CLR,0.01,VWS V14.01,2013-09-08 13:51:00,
2013-09-08 09:56:00,80.1,76.9,29.97,SW,223,0.0,4.0,90,0.01,,CLR,0.01,VWS V14.01,2013-09-08 13:56:00,
2013-09-08 10:01:00,80.5,76.6,29.96,NW,316,2.0,5.0,88,0.01,,CLR,0.01,VWS V14.01,2013-09-08 14:01:00,
2013-09-08 10:06:00,81.0,77.1,29.96,ENE,58,4.0,9.0,88,0.01,,CLR,0.01,VWS V14.01,2013-09-08 14:06:00,
2013-09-08 10:11:00,81.3,76.0,29.96,ENE,68,2.0,9.0,84,0.01,,CLR,0.01,VWS V14.01,2013-09-08 14:11:00,
2013-09-08 10:16:00,81.7,76.0,29.96,NE,42,4.0,9.0,83,0.01,,CLR,0.01,VWS V14.01,2013-09-08 14:16:00,
2013-09-08 10:21:00,82.0,77.4,29.96,NNE,32,0.0,9.0,86,0.01,,CLR,0.01,VWS V14.01,2013-09-08 14:21:00,
2013-09-08 10:26:00,82.3,76.3,29.97,NE,41,4.0,9.0,82,0.01,,CLR,0.01,VWS V14.01,2013-09-08 14:26:00,
2013-09-08 10:31:00,82.4,76.7,29.96,NE,44,1.0,9.0,83,0.01,,CLR,0.01,VWS V14.01,2013-09-08 14:31:00,
2013-09-08 10:36:00,82.2,74.3,29.96,NNE,26,3.0,9.0,77,0.01,,CLR,0.01,VWS V14.01,2013-09-08 14:36:00,
2013-09-08 10:41:00,82.0,76.0,29.97,NE,43,4.0,9.0,82,0.01,,CLR,0.01,VWS V14.01,2013-09-08 14:41:00,
2013-09-08 10:46:00,82.0,76.0,29.97,ENE,75,2.0,9.0,82,0.01,,CLR,0.01,VWS V14.01,2013-09-08 14:46:00,
2013-09-08 10:51:00,82.1,75.7,29.97,NNE,19,3.0,9.0,81,0.01,,CLR,0.01,VWS V14.01,2013-09-08 14:51:00,
2013-09-08 10:56:00,82.2,75.8,29.97,North,5,4.0,9.0,81,0.01,,CLR,0.01,VWS V14.01,2013-09-08 14:56:00,
2013-09-08 11:01:00,82.5,75.7,29.97,North,0,0.0,3.0,80,0.00,,SCT029,0.01,VWS V14.01,2013-09-08 15:01:00,
2013-09-08 11:06:00,83.0,75.8,29.96,NE,41,3.0,7.0,79,0.00,,SCT029,0.01,VWS V14.01,2013-09-08 15:06:00,
2013-09-08 11:11:00,83.5,75.5,29.96,NW,307,0.0,9.0,77,0.00,,SCT029,0.01,VWS V14.01,2013-09-08 15:11:00,
2013-09-08 11:16:00,83.3,75.7,29.96,NNE,16,3.0,9.0,78,0.00,,SCT029,0.01,VWS V14.01,2013-09-08 15:16:00,
2013-09-08 11:21:00,83.3,75.3,29.97,NE,53,4.0,10.0,77,0.00,,SCT029,0.01,VWS V14.01,2013-09-08 15:21:00,
2013-09-08 11:26:00,83.8,75.4,29.97,NNW,342,2.0,10.0,76,0.00,,SCT029,0.01,VWS V14.01,2013-09-08 15:26:00,
2013-09-08 11:31:00,84.2,76.2,29.96,NE,46,0.0,10.0,77,0.00,,SCT029,0.01,VWS V14.01,2013-09-08 15:31:00,
2013-09-08 11:36:00,84.5,76.1,29.96,NNW,329,0.0,10.0,76,0.00,,SCT029,0.01,VWS V14.01,2013-09-08 15:36:00,
2013-09-08 11:41:00,84.7,75.5,29.96,ENE,71,4.0,10.0,74,0.00,,SCT029,0.01,VWS V14.01,2013-09-08 15:41:00,
2013-09-08 11:46:00,84.2,75.4,29.96,NE,34,0.0,10.0,75,0.00,,SCT029,0.01,VWS V14.01,2013-09-08 15:46:00,
2013-09-08 11:51:00,83.8,75.0,29.97,NNE,28,1.0,10.0,75,0.00,,SCT029,0.01,VWS V14.01,2013-09-08 15:51:00,
2013-09-08 11:56:00,83.7,75.7,29.96,NNE,29,2.0,10.0,77,0.00,,SCT029,0.01,VWS V14.01,2013-09-08 15:56:00,
2013-09-08 12:01:00,83.7,74.9,29.96,North,11,2.0,6.0,75,0.00,,SCT026,0.01,VWS V14.01,2013-09-08 16:01:00,
2013-09-08 12:06:00,83.6,74.8,29.97,NE,38,5.0,6.0,75,0.00,,SCT026,0.01,VWS V14.01,2013-09-08 16:06:00,
2013-09-08 12:11:00,83.9,75.5,29.96,North,351,3.0,6.0,76,0.00,,SCT026,0.01,VWS V14.01,2013-09-08 16:11:00,
2013-09-08 12:16:00,84.1,75.3,29.97,NE,39,4.0,9.0,75,0.00,,SCT026,0.01,VWS V14.01,2013-09-08 16:16:00,
2013-09-08 12:21:00,83.9,74.7,29.96,NNE,30,3.0,9.0,74,0.00,,SCT026,0.01,VWS V14.01,2013-09-08 16:21:00,
2013-09-08 12:26:00,84.1,74.9,29.96,NNE,15,3.0,10.0,74,0.00,,SCT026,0.01,VWS V14.01,2013-09-08 16:26:00,
2013-09-08 12:31:00,84.2,75.4,29.96,NNE,25,4.0,12.0,75,0.00,,SCT026,0.01,VWS V14.01,2013-09-08 16:31:00,
2013-09-08 12:36:00,83.8,74.6,29.95,NNE,15,2.0,12.0,74,0.00,,SCT026,0.01,VWS V14.01,2013-09-08 16:36:00,
2013-09-08 12:41:00,83.9,75.1,29.95,NE,41,3.0,12.0,75,0.00,,SCT026,0.01,VWS V14.01,2013-09-08 16:41:00,
2013-09-08 12:46:00,84.0,75.6,29.96,NNE,19,0.0,12.0,76,0.00,,SCT026,0.01,VWS V14.01,2013-09-08 16:46:00,
2013-09-08 12:51:00,83.9,75.5,29.95,East,83,6.0,12.0,76,0.00,,SCT026,0.01,VWS V14.01,2013-09-08 16:51:00,
2013-09-08 12:56:00,83.8,75.4,29.95,NE,39,5.0,12.0,76,0.00,,SCT026,0.01,VWS V14.01,2013-09-08 16:56:00,
2013-09-08 13:01:00,83.6,75.2,29.96,NNE,25,0.0,4.0,76,0.00,,SCT037,0.01,VWS V14.01,2013-09-08 17:01:00,
2013-09-08 13:06:00,83.4,74.7,29.96,NE,40,5.0,5.0,75,0.00,,SCT037,0.01,VWS V14.01,2013-09-08 17:06:00,
2013-09-08 13:11:00,83.2,74.5,29.96,North,0,2.0,6.0,75,0.00,,SCT037,0.01,VWS V14.01,2013-09-08 17:11:00,
2013-09-08 13:16:00,83.0,75.1,29.95,NNE,27,0.0,7.0,77,0.00,,SCT037,0.01,VWS V14.01,2013-09-08 17:16:00,
2013-09-08 13:21:00,82.9,75.3,29.95,North,3,5.0,7.0,78,0.00,,SCT037,0.01,VWS V14.01,2013-09-08 17:21:00,
2013-09-08 13:26:00,82.8,75.2,29.96,NE,40,2.0,7.0,78,0.00,,SCT037,0.01,VWS V14.01,2013-09-08 17:26:00,
2013-09-08 13:31:00,82.8,75.2,29.95,NE,38,5.0,7.0,78,0.00,,SCT037,0.01,VWS V14.01,2013-09-08 17:31:00,
2013-09-08 13:36:00,82.8,75.6,29.95,NNE,26,2.0,7.0,79,0.00,,SCT037,0.01,VWS V14.01,2013-09-08 17:36:00,
2013-09-08 13:41:00,83.1,75.9,29.95,NE,37,7.0,7.0,79,0.00,,SCT037,0.01,VWS V14.01,2013-09-08 17:41:00,
2013-09-08 13:46:00,83.5,75.5,29.95,NNE,26,2.0,7.0,77,0.00,,SCT037,0.01,VWS V14.01,2013-09-08 17:46:00,
2013-09-08 13:51:00,84.0,76.0,29.96,NE,41,5.0,8.0,77,0.00,,SCT037,0.01,VWS V14.01,2013-09-08 17:51:00,
2013-09-08 13:56:00,84.4,76.4,29.95,NE,42,4.0,8.0,77,0.00,,SCT037,0.01,VWS V14.01,2013-09-08 17:56:00,
2013-09-08 14:01:00,84.8,76.8,29.95,North,1,4.0,6.0,77,0.00,,SCT031,0.01,VWS V14.01,2013-09-08 18:01:00,
2013-09-08 14:06:00,84.7,76.7,29.94,NE,45,5.0,8.0,77,0.00,,SCT031,0.01,VWS V14.01,2013-09-08 18:06:00,
2013-09-08 14:11:00,84.7,76.7,29.94,NE,54,0.0,9.0,77,0.00,,SCT031,0.01,VWS V14.01,2013-09-08 18:11:00,
2013-09-08 14:16:00,85.0,76.6,29.94,NE,46,5.0,10.0,76,0.00,,SCT031,0.01,VWS V14.01,2013-09-08 18:16:00,
2013-09-08 14:21:00,84.8,76.0,29.93,NNE,31,5.0,10.0,75,0.00,,SCT031,0.01,VWS V14.01,2013-09-08 18:21:00,
2013-09-08 14:26:00,84.7,76.3,29.93,NNE,29,3.0,10.0,76,0.00,,SCT031,0.01,VWS V14.01,2013-09-08 18:26:00,
2013-09-08 14:31:00,84.6,75.8,29.93,North,9,4.0,10.0,75,0.00,,SCT031,0.01,VWS V14.01,2013-09-08 18:31:00,
2013-09-08 14:36:00,84.8,76.4,29.92,ENE,60,2.0,10.0,76,0.00,,SCT031,0.01,VWS V14.01,2013-09-08 18:36:00,
2013-09-08 14:41:00,85.1,76.7,29.93,NE,45,3.0,10.0,76,0.00,,SCT031,0.01,VWS V14.01,2013-09-08 18:41:00,
2013-09-08 14:46:00,85.2,76.4,29.93,North,3,3.0,10.0,75,0.00,,SCT031,0.01,VWS V14.01,2013-09-08 18:46:00,
2013-09-08 14:51:00,84.9,76.5,29.93,North,349,0.0,10.0,76,0.00,,SCT031,0.01,VWS V14.01,2013-09-08 18:51:00,
2013-09-08 14:56:00,84.9,76.1,29.93,North,357,5.0,10.0,75,0.00,,SCT031,0.01,VWS V14.01,2013-09-08 18:56:00,
2013-09-08 15:01:00,85.0,76.6,29.93,NNE,13,4.0,6.0,76,0.00,,BKN030,0.01,VWS V14.01,2013-09-08 19:01:00,
2013-09-08 15:06:00,85.0,76.2,29.93,ENE,67,5.0,8.0,75,0.00,,BKN030,0.01,VWS V14.01,2013-09-08 19:06:00,
2013-09-08 15:11:00,85.3,76.5,29.93,NE,45,4.0,8.0,75,0.00,,BKN030,0.01,VWS V14.01,2013-09-08 19:11:00,
2013-09-08 15:16:00,85.2,76.0,29.93,NNE,32,6.0,10.0,74,0.00,,BKN030,0.01,VWS V14.01,2013-09-08 19:16:00,
2013-09-08 15:21:00,85.3,76.5,29.93,ENE,60,6.0,10.0,75,0.00,,BKN030,0.01,VWS V14.01,2013-09-08 19:21:00,
2013-09-08 15:26:00,85.4,76.2,29.93,North,359,3.0,10.0,74,0.00,,BKN030,0.01,VWS V14.01,2013-09-08 19:26:00,
2013-09-08 15:31:00,85.2,76.0,29.93,NNE,17,5.0,10.0,74,0.00,,BKN030,0.01,VWS V14.01,2013-09-08 19:31:00,
2013-09-08 15:36:00,84.7,75.1,29.93,North,7,2.0,10.0,73,0.00,,BKN030,0.01,VWS V14.01,2013-09-08 19:36:00,
2013-09-08 15:41:00,84.1,75.3,29.92,NE,39,6.0,10.0,75,0.00,,BKN030,0.01,VWS V14.01,2013-09-08 19:41:00,
2013-09-08 15:46:00,83.7,75.3,29.92,NNE,24,6.0,10.0,76,0.00,,BKN030,0.01,VWS V14.01,2013-09-08 19:46:00,
2013-09-08 15:51:00,83.4,75.1,29.91,NE,38,0.0,10.0,76,0.00,,BKN030,0.01,VWS V14.01,2013-09-08 19:51:00,
2013-09-08 15:56:00,83.4,75.4,29.92,ENE,63,3.0,10.0,77,0.00,,BKN030,0.01,VWS V14.01,2013-09-08 19:56:00,
2013-09-08 16:01:00,83.8,75.8,29.91,NE,53,4.0,6.0,77,0.00,,BKN065,0.01,VWS V14.01,2013-09-08 20:01:00,
2013-09-08 16:06:00,84.1,75.7,29.92,ENE,59,4.0,10.0,76,0.00,,BKN065,0.01,VWS V14.01,2013-09-08 20:06:00,
2013-09-08 16:11:00,83.7,75.3,29.91,NE,45,1.0,10.0,76,0.00,,BKN065,0.01,VWS V14.01,2013-09-08 20:11:00,
2013-09-08 16:16:00,83.3,75.3,29.91,NE,41,3.0,10.0,77,0.00,,BKN065,0.01,VWS V14.01,2013-09-08 20:16:00,
2013-09-08 16:21:00,83.2,75.2,29.91,ENE,64,0.0,10.0,77,0.00,,BKN065,0.01,VWS V14.01,2013-09-08 20:21:00,
2013-09-08 16:26:00,83.1,75.5,29.91,NNE,25,0.0,10.0,78,0.00,,BKN065,0.01,VWS V14.01,2013-09-08 20:26:00,
2013-09-08 16:30:00,82.9,75.3,29.91,NE,41,0.0,10.0,78,0.00,,BKN065,0.01,VWS V14.01,2013-09-08 20:30:00,
2013-09-08 16:35:00,82.9,75.3,29.91,NE,37,5.0,10.0,78,0.00,,BKN065,0.01,VWS V14.01,2013-09-08 20:35:00,
2013-09-08 16:41:00,82.8,75.6,29.91,NNE,32,5.0,10.0,79,0.00,,BKN065,0.01,VWS V14.01,2013-09-08 20:41:00,
2013-09-08 16:45:00,82.8,75.6,29.91,NE,35,0.0,10.0,79,0.00,,BKN065,0.01,VWS V14.01,2013-09-08 20:45:00,
2013-09-08 16:50:00,82.8,75.6,29.91,NE,50,4.0,10.0,79,0.00,,BKN065,0.01,VWS V14.01,2013-09-08 20:50:00,
2013-09-08 16:55:00,82.7,75.5,29.91,NE,49,6.0,10.0,79,0.00,,BKN065,0.01,VWS V14.01,2013-09-08 20:55:00,
2013-09-08 17:00:00,82.8,75.6,29.91,NE,55,5.0,7.0,79,0.00,,SCT024,0.01,VWS V14.01,2013-09-08 21:00:00,
2013-09-08 17:05:00,83.1,75.5,29.91,NE,45,3.0,7.0,78,0.00,,SCT024,0.01,VWS V14.01,2013-09-08 21:05:00,
2013-09-08 17:10:00,83.5,75.5,29.91,NE,51,8.0,8.0,77,0.00,,SCT024,0.01,VWS V14.01,2013-09-08 21:10:00,
2013-09-08 17:15:00,83.7,74.9,29.92,NE,37,4.0,11.0,75,0.00,,SCT024,0.01,VWS V14.01,2013-09-08 21:15:00,
2013-09-08 17:20:00,83.8,75.4,29.91,NNE,33,4.0,11.0,76,0.00,,SCT024,0.01,VWS V14.01,2013-09-08 21:20:00,
2013-09-08 17:25:00,83.9,75.5,29.91,NE,50,3.0,11.0,76,0.00,,SCT024,0.01,VWS V14.01,2013-09-08 21:25:00,
2013-09-08 17:30:00,83.9,75.1,29.92,NE,46,2.0,11.0,75,0.00,,SCT024,0.01,VWS V14.01,2013-09-08 21:30:00,
2013-09-08 17:35:00,83.9,75.5,29.92,NE,38,0.0,11.0,76,0.00,,SCT024,0.01,VWS V14.01,2013-09-08 21:35:00,
2013-09-08 17:40:00,83.9,75.1,29.91,NNE,33,5.0,11.0,75,0.00,,SCT024,0.01,VWS V14.01,2013-09-08 21:40:00,
2013-09-08 17:45:00,83.9,74.7,29.91,North,358,0.0,11.0,74,0.00,,SCT024,0.01,VWS V14.01,2013-09-08 21:45:00,
2013-09-08 17:50:00,83.9,74.7,29.92,NNE,32,4.0,11.0,74,0.00,,SCT024,0.01,VWS V14.01,2013-09-08 21:50:00,
2013-09-08 17:55:00,83.8,74.6,29.92,NE,42,6.0,11.0,74,0.00,,SCT024,0.01,VWS V14.01,2013-09-08 21:55:00,
2013-09-08 18:00:00,83.7,74.9,29.92,NNE,16,0.0,0.0,75,0.00,,FEW023,0.01,VWS V14.01,2013-09-08 22:00:00,
2013-09-08 18:05:00,83.7,74.9,29.92,NE,36,3.0,8.0,75,0.00,,FEW023,0.01,VWS V14.01,2013-09-08 22:05:00,
2013-09-08 18:10:00,83.6,74.8,29.92,ENE,67,3.0,8.0,75,0.00,,FEW023,0.01,VWS V14.01,2013-09-08 22:10:00,
2013-09-08 18:15:00,83.6,75.2,29.92,NE,38,5.0,11.0,76,0.00,,FEW023,0.01,VWS V14.01,2013-09-08 22:15:00,
2013-09-08 18:20:00,83.5,75.1,29.91,ENE,57,6.0,11.0,76,0.00,,FEW023,0.01,VWS V14.01,2013-09-08 22:20:00,
2013-09-08 18:25:00,83.4,75.4,29.92,NE,41,5.0,11.0,77,0.00,,FEW023,0.01,VWS V14.01,2013-09-08 22:25:00,
2013-09-08 18:30:00,83.2,75.2,29.92,NE,51,4.0,11.0,77,0.00,,FEW023,0.01,VWS V14.01,2013-09-08 22:30:00,
2013-09-08 18:35:00,82.9,75.3,29.92,NE,46,0.0,11.0,78,0.00,,FEW023,0.01,VWS V14.01,2013-09-08 22:35:00,
2013-09-08 18:40:00,82.8,75.6,29.92,NE,34,3.0,11.0,79,0.00,,FEW023,0.01,VWS V14.01,2013-09-08 22:40:00,
2013-09-08 18:45:00,82.7,75.5,29.92,NE,40,3.0,11.0,79,0.00,,FEW023,0.01,VWS V14.01,2013-09-08 22:45:00,
2013-09-08 18:50:00,82.6,75.1,29.91,NNE,18,4.0,11.0,78,0.00,,FEW023,0.01,VWS V14.01,2013-09-08 22:50:00,
2013-09-08 18:55:00,82.4,74.9,29.92,NE,35,4.0,11.0,78,0.00,,FEW023,0.01,VWS V14.01,2013-09-08 22:55:00,
2013-09-08 19:00:00,82.3,75.1,29.92,NE,42,2.0,5.0,79,0.00,,CLR,0.01,VWS V14.01,2013-09-08 23:00:00,
2013-09-08 19:05:00,82.1,74.9,29.92,NNE,12,1.0,6.0,79,0.00,,CLR,0.01,VWS V14.01,2013-09-08 23:05:00,
2013-09-08 19:10:00,81.9,74.8,29.91,NNE,25,3.0,8.0,79,0.00,,CLR,0.01,VWS V14.01,2013-09-08 23:10:00,
2013-09-08 19:15:00,81.8,74.7,29.92,NE,34,3.0,8.0,79,0.00,,CLR,0.01,VWS V14.01,2013-09-08 23:15:00,
2013-09-08 19:20:00,81.7,74.9,29.92,NE,36,3.0,8.0,80,0.00,,CLR,0.01,VWS V14.01,2013-09-08 23:20:00,
2013-09-08 19:25:00,81.7,74.6,29.92,NE,52,0.0,8.0,79,0.00,,CLR,0.01,VWS V14.01,2013-09-08 23:25:00,
2013-09-08 19:30:00,81.7,74.6,29.92,NNE,26,2.0,8.0,79,0.00,,CLR,0.01,VWS V14.01,2013-09-08 23:30:00,
2013-09-08 19:35:00,81.6,74.5,29.92,NNE,28,2.0,8.0,79,0.00,,CLR,0.01,VWS V14.01,2013-09-08 23:35:00,
2013-09-08 19:40:00,81.6,74.5,29.92,ENE,62,0.0,8.0,79,0.00,,CLR,0.01,VWS V14.01,2013-09-08 23:40:00,
2013-09-08 19:45:00,81.5,74.4,29.92,NE,50,5.0,8.0,79,0.00,,CLR,0.01,VWS V14.01,2013-09-08 23:45:00,
2013-09-08 19:50:00,81.5,74.4,29.92,NE,50,0.0,8.0,79,0.00,,CLR,0.01,VWS V14.01,2013-09-08 23:50:00,
2013-09-08 19:55:00,81.4,74.3,29.92,NE,52,3.0,8.0,79,0.00,,CLR,0.01,VWS V14.01,2013-09-08 23:55:00,
2013-09-08 20:00:00,81.4,74.3,29.93,NE,44,6.0,6.0,79,0.00,,CLR,0.01,VWS V14.01,2013-09-09 00:00:00,
2013-09-08 20:05:00,81.4,74.6,29.93,NE,51,0.0,6.0,80,0.00,,CLR,0.01,VWS V14.01,2013-09-09 00:05:00,
2013-09-08 20:11:00,81.3,74.2,29.93,NE,38,4.0,8.0,79,0.00,,CLR,0.01,VWS V14.01,2013-09-09 00:11:00,
2013-09-08 20:16:00,81.3,74.2,29.93,NE,40,4.0,8.0,79,0.00,,CLR,0.01,VWS V14.01,2013-09-09 00:16:00,
2013-09-08 20:21:00,81.4,74.6,29.93,NNE,19,3.0,8.0,80,0.00,,CLR,0.01,VWS V14.01,2013-09-09 00:21:00,
2013-09-08 20:26:00,81.3,74.5,29.93,North,350,3.0,8.0,80,0.00,,CLR,0.01,VWS V14.01,2013-09-09 00:26:00,
2013-09-08 20:31:00,81.4,75.0,29.94,NE,49,0.0,8.0,81,0.00,,CLR,0.01,VWS V14.01,2013-09-09 00:31:00,
2013-09-08 20:36:00,81.4,75.0,29.93,ENE,58,0.0,8.0,81,0.00,,CLR,0.01,VWS V14.01,2013-09-09 00:36:00,
2013-09-08 20:41:00,81.4,75.0,29.94,NE,55,0.0,8.0,81,0.00,,CLR,0.01,VWS V14.01,2013-09-09 00:41:00,
2013-09-08 20:46:00,81.4,75.0,29.94,NNE,26,3.0,8.0,81,0.00,,CLR,0.01,VWS V14.01,2013-09-09 00:46:00,
2013-09-08 20:51:00,81.4,74.6,29.94,ENE,68,0.0,8.0,80,0.00,,CLR,0.01,VWS V14.01,2013-09-09 00:51:00,
2013-09-08 20:56:00,81.4,74.3,29.94,ENE,59,0.0,8.0,79,0.00,,CLR,0.01,VWS V14.01,2013-09-09 00:56:00,
2013-09-08 21:01:00,81.4,73.9,29.94,NE,36,4.0,4.0,78,0.00,,CLR,0.01,VWS V14.01,2013-09-09 01:01:00,
2013-09-08 21:06:00,81.5,74.4,29.95,NNE,17,2.0,5.0,79,0.00,,CLR,0.01,VWS V14.01,2013-09-09 01:06:00,
2013-09-08 21:11:00,81.5,75.1,29.95,NNE,18,1.0,5.0,81,0.00,,CLR,0.01,VWS V14.01,2013-09-09 01:11:00,
2013-09-08 21:16:00,81.4,75.4,29.95,North,8,2.0,5.0,82,0.00,,CLR,0.01,VWS V14.01,2013-09-09 01:16:00,
2013-09-08 21:21:00,81.3,75.3,29.96,NNE,30,0.0,6.0,82,0.00,,CLR,0.01,VWS V14.01,2013-09-09 01:21:00,
2013-09-08 21:26:00,81.2,75.6,29.95,North,10,0.0,6.0,83,0.00,,CLR,0.01,VWS V14.01,2013-09-09 01:26:00,
2013-09-08 21:31:00,81.2,75.6,29.96,North,11,0.0,6.0,83,0.00,,CLR,0.01,VWS V14.01,2013-09-09 01:31:00,
2013-09-08 21:36:00,81.0,75.3,29.97,NNE,13,0.0,6.0,83,0.00,,CLR,0.01,VWS V14.01,2013-09-09 01:36:00,
2013-09-08 21:41:00,81.0,75.3,29.96,NNE,13,0.0,6.0,83,0.00,,CLR,0.01,VWS V14.01,2013-09-09 01:41:00,
2013-09-08 21:46:00,81.0,75.3,29.97,NNE,13,3.0,6.0,83,0.00,,CLR,0.01,VWS V14.01,2013-09-09 01:46:00,
2013-09-08 21:51:00,80.9,75.3,29.97,North,0,0.0,6.0,83,0.00,,CLR,0.01,VWS V14.01,2013-09-09 01:51:00,
2013-09-08 21:56:00,81.0,75.3,29.97,North,0,0.0,6.0,83,0.00,,CLR,0.01,VWS V14.01,2013-09-09 01:56:00,
2013-09-08 22:01:00,80.9,75.3,29.98,North,2,0.0,0.0,83,0.00,,CLR,0.01,VWS V14.01,2013-09-09 02:01:00,
2013-09-08 22:06:00,80.9,75.3,29.97,North,2,0.0,1.0,83,0.00,,CLR,0.01,VWS V14.01,2013-09-09 02:06:00,
2013-09-08 22:11:00,80.9,75.3,29.98,North,2,0.0,1.0,83,0.00,,CLR,0.01,VWS V14.01,2013-09-09 02:11:00,
2013-09-08 22:16:00,80.9,75.3,29.99,North,2,0.0,1.0,83,0.00,,CLR,0.01,VWS V14.01,2013-09-09 02:16:00,
2013-09-08 22:21:00,80.9,75.3,29.99,North,2,0.0,1.0,83,0.00,,CLR,0.01,VWS V14.01,2013-09-09 02:21:00,
2013-09-08 22:26:00,80.8,75.2,29.98,North,2,0.0,1.0,83,0.00,,CLR,0.01,VWS V14.01,2013-09-09 02:26:00,
2013-09-08 22:31:00,80.8,75.2,29.99,NE,40,0.0,2.0,83,0.00,,CLR,0.01,VWS V14.01,2013-09-09 02:31:00,
2013-09-08 22:36:00,80.8,75.2,29.99,NE,39,0.0,2.0,83,0.00,,CLR,0.01,VWS V14.01,2013-09-09 02:36:00,
2013-09-08 22:41:00,80.8,75.2,29.99,North,2,0.0,2.0,83,0.00,,CLR,0.01,VWS V14.01,2013-09-09 02:41:00,
2013-09-08 22:46:00,80.8,75.2,29.99,North,3,0.0,4.0,83,0.00,,CLR,0.01,VWS V14.01,2013-09-09 02:46:00,
2013-09-08 22:51:00,80.8,75.2,29.99,North,4,0.0,4.0,83,0.00,,CLR,0.01,VWS V14.01,2013-09-09 02:51:00,
2013-09-08 22:56:00,80.8,75.2,29.99,North,4,0.0,4.0,83,0.00,,CLR,0.01,VWS V14.01,2013-09-09 02:56:00,
2013-09-08 23:01:00,80.8,75.2,29.99,North,4,0.0,0.0,83,0.00,,,0.01,VWS V14.01,2013-09-09 03:01:00,
2013-09-08 23:06:00,80.7,75.1,29.99,North,4,0.0,1.0,83,0.00,,,0.01,VWS V14.01,2013-09-09 03:06:00,
2013-09-08 23:11:00,80.7,75.1,29.99,North,4,0.0,1.0,83,0.00,,,0.01,VWS V14.01,2013-09-09 03:11:00,
2013-09-08 23:16:00,80.6,75.0,29.99,North,4,0.0,1.0,83,0.00,,-RA,0.01,VWS V14.01,2013-09-09 03:16:00,
2013-09-08 23:21:00,80.7,75.4,29.98,North,4,0.0,1.0,84,0.00,,-RA,0.01,VWS V14.01,2013-09-09 03:21:00,
2013-09-08 23:26:00,80.6,75.0,29.99,North,4,0.0,1.0,83,0.00,,-RA,0.01,VWS V14.01,2013-09-09 03:26:00,
2013-09-08 23:31:00,80.6,75.0,29.98,North,4,0.0,1.0,83,0.00,,-RA,0.01,VWS V14.01,2013-09-09 03:31:00,
2013-09-08 23:36:00,80.6,75.3,29.99,North,4,0.0,1.0,84,0.00,,-RA,0.01,VWS V14.01,2013-09-09 03:36:00,
2013-09-08 23:41:00,80.6,75.3,29.99,North,4,0.0,1.0,84,0.00,,-RA,0.01,VWS V14.01,2013-09-09 03:41:00,
2013-09-08 23:46:00,80.6,75.3,29.99,North,5,2.0,2.0,84,0.02,,-RA,0.03,VWS V14.01,2013-09-09 03:46:00,
2013-09-08 23:51:00,80.6,76.0,29.99,SW,218,0.0,4.0,86,0.02,,-RA,0.03,VWS V14.01,2013-09-09 03:51:00,
2013-09-08 23:56:00,80.5,75.6,29.99,SW,219,0.0,4.0,85,0.02,,-RA,0.03,VWS V14.01,2013-09-09 03:56:00,